createdAt,value
2022-08-20T00:02:14.676Z,57.70
2022-08-20T00:04:42.642Z,57.49
2022-08-20T00:07:10.413Z,55.40
2022-08-20T00:09:38.591Z,55.31
2022-08-20T00:12:06.556Z,56.94
2022-08-20T00:14:35.317Z,60.16
2022-08-20T00:17:05.034Z,57.55
2022-08-20T00:19:32.782Z,58.05
2022-08-20T00:22:00.948Z,58.61
2022-08-20T00:24:29.054Z,56.46
2022-08-20T00:26:56.750Z,57.15
2022-08-20T00:29:24.466Z,59.11
2022-08-20T00:31:52.715Z,56.15
2022-08-20T00:34:20.812Z,56.05
2022-08-20T00:36:48.930Z,59.80
2022-08-20T00:39:16.989Z,60.33
2022-08-20T00:41:45.811Z,57.52
2022-08-20T00:44:19.897Z,58.54
2022-08-20T00:46:49.229Z,60.88
2022-08-20T00:49:29.837Z,60.51
2022-08-20T00:52:06.126Z,60.50
2022-08-20T00:54:55.701Z,60.58
2022-08-20T00:58:01.748Z,60.90
2022-08-20T01:00:44.691Z,61.64
2022-08-20T01:03:14.949Z,61.93
2022-08-20T01:05:47.945Z,61.07
2022-08-20T01:08:18.888Z,59.91
2022-08-20T01:10:48.993Z,58.35
2022-08-20T01:13:23.572Z,59.10
2022-08-20T01:15:53.197Z,56.40
2022-08-20T01:18:27.059Z,60.16
2022-08-20T01:21:01.416Z,59.74
2022-08-20T01:23:38.129Z,57.89
2022-08-20T01:26:21.140Z,57.40
2022-08-20T01:29:01.949Z,57.12
2022-08-20T01:31:32.635Z,61.21
2022-08-20T01:34:02.002Z,62.90
2022-08-20T01:36:34.556Z,63.76
2022-08-20T01:39:04.836Z,64.31
2022-08-20T01:41:53.435Z,65.01
2022-08-20T01:44:21.885Z,68.71
2022-08-20T01:46:57.556Z,62.09
2022-08-20T01:49:30.458Z,63.51
2022-08-20T01:52:07.927Z,62.23
2022-08-20T01:54:36.087Z,59.57
2022-08-20T01:57:13.782Z,59.94
2022-08-20T01:59:42.540Z,66.21
2022-08-20T02:02:12.668Z,61.99
2022-08-20T02:04:41.607Z,59.51
2022-08-20T02:07:17.002Z,67.06
2022-08-20T02:09:46.095Z,70.37
2022-08-20T02:12:17.420Z,64.04
2022-08-20T02:14:53.458Z,71.52
2022-08-20T02:17:23.549Z,69.00
2022-08-20T02:20:00.938Z,100.00
2022-08-20T02:22:49.816Z,100.00
2022-08-20T02:25:23.112Z,100.00
2022-08-20T02:27:52.753Z,100.00
2022-08-20T02:30:27.743Z,100.00
2022-08-20T02:32:57.863Z,100.00
2022-08-20T02:35:50.860Z,100.00
2022-08-20T02:38:18.655Z,100.00
2022-08-20T02:40:46.769Z,100.00
2022-08-20T02:43:15.432Z,100.00
2022-08-20T02:45:44.070Z,100.00
2022-08-20T02:48:20.685Z,100.00
2022-08-20T02:50:53.097Z,100.00
2022-08-20T02:53:22.239Z,100.00
2022-08-20T02:55:50.661Z,100.00
2022-08-20T02:58:19.892Z,100.00
2022-08-20T03:00:48.594Z,100.00
2022-08-20T03:03:22.302Z,100.00
2022-08-20T03:05:56.190Z,100.00
2022-08-20T03:08:29.359Z,100.00
2022-08-20T03:10:57.634Z,100.00
2022-08-20T03:13:25.827Z,100.00
2022-08-20T03:15:58.764Z,100.00
2022-08-20T03:18:32.985Z,100.00
2022-08-20T03:21:01.367Z,100.00
2022-08-20T03:23:29.676Z,100.00
2022-08-20T03:25:58.986Z,100.00
2022-08-20T03:28:27.606Z,100.00
2022-08-20T03:30:56.472Z,100.00
2022-08-20T03:33:24.266Z,100.00
2022-08-20T03:35:52.075Z,100.00
2022-08-20T03:38:32.350Z,100.00
2022-08-20T03:41:26.614Z,100.00
2022-08-20T03:43:54.813Z,100.00
2022-08-20T03:46:23.947Z,100.00
2022-08-20T03:48:56.367Z,100.00
2022-08-20T03:51:29.912Z,100.00
2022-08-20T03:53:58.723Z,100.00
2022-08-20T03:56:27.356Z,100.00
2022-08-20T03:58:55.448Z,100.00
2022-08-20T04:01:45.457Z,100.00
2022-08-20T04:04:15.137Z,100.00
2022-08-20T04:06:43.558Z,100.00
2022-08-20T04:09:12.199Z,100.00
2022-08-20T04:11:41.756Z,100.00
2022-08-20T04:14:11.265Z,100.00
2022-08-20T04:16:40.415Z,100.00
2022-08-20T04:19:09.160Z,100.00
2022-08-20T04:21:37.219Z,100.00
2022-08-20T04:24:06.101Z,100.00
2022-08-20T04:26:47.885Z,100.00
2022-08-20T04:29:15.592Z,100.00
2022-08-20T04:31:43.349Z,100.00
2022-08-20T04:34:11.160Z,100.00
2022-08-20T04:36:40.458Z,100.00
2022-08-20T04:39:08.127Z,100.00
2022-08-20T04:41:35.881Z,100.00
2022-08-20T04:44:29.269Z,100.00
2022-08-20T04:46:57.872Z,100.00
2022-08-20T04:49:26.319Z,100.00
2022-08-20T04:51:54.796Z,100.00
2022-08-20T04:54:22.877Z,100.00
2022-08-20T04:56:50.932Z,100.00
2022-08-20T04:59:19.845Z,100.00
2022-08-20T05:01:48.397Z,100.00
2022-08-20T05:04:16.070Z,100.00
2022-08-20T05:06:52.247Z,100.00
2022-08-20T05:09:47.320Z,100.00
2022-08-20T05:12:21.217Z,100.00
2022-08-20T05:14:54.326Z,100.00
2022-08-20T05:17:32.834Z,100.00
2022-08-20T05:20:00.570Z,100.00
2022-08-20T05:22:31.114Z,100.00
2022-08-20T05:24:59.667Z,100.00
2022-08-20T05:27:28.911Z,100.00
2022-08-20T05:30:08.658Z,100.00
2022-08-20T05:32:44.478Z,100.00
2022-08-20T05:35:12.862Z,100.00
2022-08-20T05:37:44.911Z,100.00
2022-08-20T05:40:14.404Z,100.00
2022-08-20T05:42:43.287Z,100.00
2022-08-20T05:45:12.169Z,100.00
2022-08-20T05:47:42.887Z,100.00
2022-08-20T05:50:20.666Z,100.00
2022-08-20T05:52:51.552Z,100.00
2022-08-20T05:55:19.574Z,100.00
2022-08-20T05:57:47.229Z,100.00
2022-08-20T06:00:15.630Z,100.00
2022-08-20T06:03:02.310Z,100.00
2022-08-20T06:05:30.379Z,100.00
2022-08-20T06:08:07.748Z,100.00
2022-08-20T06:10:36.758Z,100.00
2022-08-20T06:13:10.045Z,100.00
2022-08-20T06:15:42.206Z,100.00
2022-08-20T06:18:16.602Z,100.00
2022-08-20T06:20:57.017Z,100.00
2022-08-20T06:23:25.503Z,100.00
2022-08-20T06:25:53.764Z,100.00
2022-08-20T06:28:21.895Z,100.00
2022-08-20T06:30:49.923Z,100.00
2022-08-20T06:33:19.945Z,100.00
2022-08-20T06:35:48.927Z,100.00
2022-08-20T06:38:16.663Z,100.00
2022-08-20T06:40:44.634Z,100.00
2022-08-20T06:43:13.211Z,100.00
2022-08-20T06:45:41.247Z,100.00
2022-08-20T06:48:15.063Z,100.00
2022-08-20T06:50:47.913Z,100.00
2022-08-20T06:53:19.285Z,100.00
2022-08-20T06:55:53.186Z,100.00
2022-08-20T06:58:36.645Z,100.00
2022-08-20T07:01:11.633Z,100.00
2022-08-20T07:03:42.232Z,100.00
2022-08-20T07:06:25.672Z,100.00
2022-08-20T07:08:55.146Z,100.00
2022-08-20T07:11:27.832Z,100.00
2022-08-20T07:13:59.304Z,100.00
2022-08-20T07:16:27.287Z,100.00
2022-08-20T07:18:55.728Z,100.00
2022-08-20T07:21:24.401Z,100.00
2022-08-20T07:23:53.168Z,100.00
2022-08-20T07:26:21.360Z,100.00
2022-08-20T07:28:49.449Z,100.00
2022-08-20T07:31:36.089Z,100.00
2022-08-20T07:34:08.423Z,100.00
2022-08-20T07:36:36.097Z,100.00
2022-08-20T07:39:06.588Z,100.00
2022-08-20T07:41:35.679Z,100.00
2022-08-20T07:44:04.656Z,100.00
2022-08-20T07:46:33.326Z,100.00
2022-08-20T07:49:01.535Z,100.00
2022-08-20T07:51:29.584Z,100.00
2022-08-20T07:53:58.983Z,100.00
2022-08-20T07:56:30.829Z,100.00
2022-08-20T07:58:59.869Z,100.00
2022-08-20T08:01:30.888Z,100.00
2022-08-20T08:04:00.049Z,100.00
2022-08-20T08:06:44.821Z,100.00
2022-08-20T08:09:14.788Z,100.00
2022-08-20T08:11:50.160Z,100.00
2022-08-20T08:14:29.111Z,100.00
2022-08-20T08:17:04.346Z,100.00
2022-08-20T08:19:48.922Z,100.00
2022-08-20T08:22:19.196Z,100.00
2022-08-20T08:24:57.256Z,100.00
2022-08-20T08:27:32.510Z,100.00
2022-08-20T08:30:08.913Z,100.00
2022-08-20T08:33:20.968Z,100.00
2022-08-20T08:35:51.108Z,100.00
2022-08-20T08:38:45.518Z,100.00
2022-08-20T08:41:35.961Z,100.00
2022-08-20T08:44:34.378Z,69.00
2022-08-20T08:47:19.459Z,64.36
2022-08-20T08:50:43.787Z,63.44
2022-08-20T08:53:22.791Z,62.42
2022-08-20T08:56:16.158Z,63.01
2022-08-20T08:59:23.053Z,63.10
2022-08-20T09:01:57.257Z,64.18
2022-08-20T09:04:38.386Z,63.59
2022-08-20T09:07:15.779Z,65.48
2022-08-20T09:09:46.720Z,65.28
2022-08-20T09:12:42.403Z,63.65
2022-08-20T09:15:13.572Z,62.75
2022-08-20T09:18:08.162Z,63.62
2022-08-20T09:20:36.404Z,63.49
2022-08-20T09:23:07.750Z,63.69
2022-08-20T09:25:41.676Z,64.18
2022-08-20T09:28:37.275Z,64.03
2022-08-20T09:31:05.338Z,63.14
2022-08-20T09:33:34.886Z,62.04
2022-08-20T09:36:02.812Z,59.90
2022-08-20T09:38:31.060Z,60.10
2022-08-20T09:41:25.010Z,60.85
2022-08-20T09:43:53.258Z,60.52
2022-08-20T09:46:27.278Z,62.37
2022-08-20T09:48:55.509Z,63.14
2022-08-20T09:51:23.433Z,63.04
2022-08-20T09:53:54.798Z,62.63
2022-08-20T09:56:25.207Z,62.13
2022-08-20T09:59:02.807Z,61.29
2022-08-20T10:01:38.440Z,58.83
2022-08-20T10:04:10.522Z,56.90
2022-08-20T10:06:39.785Z,53.25
2022-08-20T10:09:07.900Z,53.38
2022-08-20T10:11:59.388Z,49.37
2022-08-20T10:14:28.268Z,49.43
2022-08-20T10:17:00.179Z,49.49
2022-08-20T10:19:30.139Z,50.04
2022-08-20T10:21:58.394Z,46.76
2022-08-20T10:24:27.133Z,46.53
2022-08-20T10:26:59.530Z,48.23
2022-08-20T10:29:30.547Z,46.56
2022-08-20T10:32:14.150Z,46.25
2022-08-20T10:34:45.835Z,45.44
2022-08-20T10:37:21.173Z,42.07
2022-08-20T10:39:53.270Z,38.71
2022-08-20T10:42:24.542Z,40.96
2022-08-20T10:44:52.796Z,41.40
2022-08-20T10:47:28.538Z,40.59
2022-08-20T10:49:59.106Z,43.12
2022-08-20T10:52:30.496Z,42.60
2022-08-20T10:55:09.417Z,40.99
2022-08-20T10:57:41.474Z,40.80
2022-08-20T11:00:25.965Z,40.87
2022-08-20T11:02:53.761Z,41.40
2022-08-20T11:05:22.993Z,40.95
2022-08-20T11:07:56.013Z,41.75
2022-08-20T11:10:26.573Z,41.95
2022-08-20T11:13:19.218Z,44.19
2022-08-20T11:16:17.524Z,42.77
2022-08-20T11:19:11.085Z,42.34
2022-08-20T11:21:52.374Z,39.83
2022-08-20T11:24:24.361Z,38.36
2022-08-20T11:26:54.217Z,36.02
2022-08-20T11:29:22.612Z,36.75
2022-08-20T11:32:15.284Z,36.76
2022-08-20T11:34:44.602Z,35.92
2022-08-20T11:37:13.711Z,36.29
2022-08-20T11:39:46.622Z,37.52
2022-08-20T11:42:14.936Z,35.15
2022-08-20T11:44:43.180Z,33.38
2022-08-20T11:47:23.599Z,33.01
2022-08-20T11:49:57.934Z,32.09
2022-08-20T11:52:27.128Z,31.74
2022-08-20T11:54:58.649Z,30.12
2022-08-20T11:57:30.232Z,31.81
2022-08-20T12:00:06.236Z,33.80
2022-08-20T12:02:36.630Z,36.05
2022-08-20T12:05:05.334Z,36.42
2022-08-20T12:07:33.345Z,36.01
2022-08-20T12:10:01.418Z,32.86
2022-08-20T12:12:29.512Z,33.88
2022-08-20T12:14:57.684Z,33.09
2022-08-20T12:17:27.874Z,28.96
2022-08-20T12:19:57.721Z,29.04
2022-08-20T12:22:29.862Z,29.28
2022-08-20T12:24:58.319Z,28.67
2022-08-20T12:27:29.661Z,27.93
2022-08-20T12:30:00.641Z,29.53
2022-08-20T12:32:30.635Z,29.64
2022-08-20T12:34:58.864Z,31.53
2022-08-20T12:37:29.505Z,31.55
2022-08-20T12:39:59.548Z,32.12
2022-08-20T12:42:30.621Z,100.00
2022-08-20T12:44:59.589Z,100.00
2022-08-20T12:47:31.574Z,32.12
2022-08-20T12:50:05.086Z,33.38
2022-08-20T12:52:33.708Z,30.64
2022-08-20T12:55:08.558Z,30.68
2022-08-20T12:57:48.010Z,29.75
2022-08-20T13:00:22.434Z,32.13
2022-08-20T13:02:57.373Z,34.41
2022-08-20T13:05:31.889Z,35.78
2022-08-20T13:08:02.327Z,36.67
2022-08-20T13:10:33.336Z,37.01
2022-08-20T13:13:04.297Z,37.00
2022-08-20T13:15:33.270Z,36.49
2022-08-20T13:18:06.066Z,36.44
2022-08-20T13:20:34.934Z,36.28
2022-08-20T13:23:28.107Z,35.29
2022-08-20T13:25:55.913Z,33.95
2022-08-20T13:28:24.690Z,100.00
2022-08-20T13:31:02.041Z,33.95
2022-08-20T13:33:30.226Z,33.09
2022-08-20T13:35:57.977Z,32.95
2022-08-20T13:38:25.737Z,100.00
2022-08-20T13:40:58.484Z,33.49
2022-08-20T13:43:27.360Z,33.49
2022-08-20T13:45:55.553Z,34.23
2022-08-20T13:48:23.559Z,34.62
2022-08-20T13:50:51.651Z,34.04
2022-08-20T13:53:22.116Z,33.55
2022-08-20T13:55:51.271Z,32.98
2022-08-20T13:58:19.047Z,32.83
2022-08-20T14:00:50.860Z,34.15
2022-08-20T14:03:29.983Z,33.79
2022-08-20T14:06:01.254Z,33.96
2022-08-20T14:08:30.231Z,34.32
2022-08-20T14:10:59.308Z,34.44
2022-08-20T14:13:27.509Z,33.94
2022-08-20T14:16:25.475Z,33.92
2022-08-20T14:18:56.664Z,33.49
2022-08-20T14:21:24.430Z,32.26
2022-08-20T14:23:52.169Z,33.34
2022-08-20T14:26:20.053Z,33.41
2022-08-20T14:28:47.817Z,32.54
2022-08-20T14:31:15.961Z,32.04
2022-08-20T14:33:44.801Z,32.68
2022-08-20T14:36:13.036Z,32.50
2022-08-20T14:38:44.992Z,32.24
2022-08-20T14:41:12.743Z,31.43
2022-08-20T14:43:40.603Z,30.52
2022-08-20T14:46:08.392Z,29.24
2022-08-20T14:48:36.586Z,28.92
2022-08-20T14:51:04.494Z,28.65
2022-08-20T14:53:32.287Z,25.95
2022-08-20T14:56:00.742Z,27.27
2022-08-20T14:58:29.449Z,26.97
2022-08-20T15:00:57.302Z,27.74
2022-08-20T15:03:30.385Z,28.46
2022-08-20T15:05:58.855Z,28.06
2022-08-20T15:08:28.850Z,27.01
2022-08-20T15:10:57.107Z,100.00
2022-08-20T15:13:24.997Z,100.00
2022-08-20T15:15:53.195Z,100.00
2022-08-20T15:18:24.970Z,100.00
2022-08-20T15:20:52.735Z,100.00
2022-08-20T15:23:28.187Z,100.00
2022-08-20T15:25:55.971Z,100.00
2022-08-20T15:28:23.868Z,100.00
2022-08-20T15:30:51.746Z,100.00
2022-08-20T15:33:19.590Z,100.00
2022-08-20T15:35:47.398Z,29.27
2022-08-20T15:38:15.201Z,100.00
2022-08-20T15:40:53.276Z,100.00
2022-08-20T15:43:21.072Z,100.00
2022-08-20T15:45:49.120Z,100.00
2022-08-20T15:48:18.978Z,29.27
2022-08-20T15:51:02.869Z,30.12
2022-08-20T15:53:37.222Z,30.40
2022-08-20T15:56:35.266Z,30.32
2022-08-20T15:59:43.033Z,30.76
2022-08-20T16:02:36.533Z,31.06
2022-08-20T16:05:43.209Z,30.07
2022-08-20T16:08:15.888Z,30.59
2022-08-20T16:11:11.353Z,31.21
2022-08-20T16:13:41.546Z,31.37
2022-08-20T16:16:14.503Z,31.32
2022-08-20T16:18:42.663Z,31.74
2022-08-20T16:21:13.857Z,32.28
2022-08-20T16:23:42.361Z,31.53
2022-08-20T16:26:43.564Z,31.93
2022-08-20T16:30:00.765Z,31.86
2022-08-20T16:33:00.857Z,31.86
2022-08-20T16:35:37.285Z,31.14
2022-08-20T16:38:33.174Z,31.04
2022-08-20T16:41:22.826Z,29.86
2022-08-20T16:44:01.112Z,29.87
2022-08-20T16:46:37.381Z,28.97
2022-08-20T16:49:13.770Z,29.13
2022-08-20T16:51:51.748Z,27.86
2022-08-20T16:54:29.541Z,28.03
2022-08-20T16:57:05.978Z,27.06
2022-08-20T16:59:34.167Z,29.19
2022-08-20T17:02:15.064Z,28.92
2022-08-20T17:04:59.392Z,28.92
2022-08-20T17:07:43.291Z,29.12
2022-08-20T17:10:32.895Z,27.67
2022-08-20T17:13:11.091Z,27.99
2022-08-20T17:15:39.726Z,29.05
2022-08-20T17:18:38.465Z,30.26
2022-08-20T17:21:16.818Z,29.81
2022-08-20T17:23:56.013Z,29.39
2022-08-20T17:26:30.086Z,29.21
2022-08-20T17:29:11.225Z,29.53
2022-08-20T17:31:43.005Z,31.00
2022-08-20T17:34:17.294Z,29.57
2022-08-20T17:36:58.587Z,29.22
2022-08-20T17:39:28.589Z,29.86
2022-08-20T17:42:11.034Z,29.72
2022-08-20T17:44:43.828Z,29.77
2022-08-20T17:47:21.418Z,31.38
2022-08-20T17:50:02.878Z,31.61
2022-08-20T17:52:39.526Z,31.14
2022-08-20T17:55:08.059Z,31.82
2022-08-20T17:57:38.454Z,31.82
2022-08-20T18:00:16.162Z,32.58
2022-08-20T18:02:44.355Z,32.92
2022-08-20T18:05:20.037Z,32.85
2022-08-20T18:08:30.641Z,32.87
2022-08-20T18:11:18.278Z,33.30
2022-08-20T18:14:00.444Z,33.23
2022-08-20T18:16:53.986Z,33.60
2022-08-20T18:20:17.689Z,33.70
2022-08-20T18:23:13.048Z,34.01
2022-08-20T18:25:45.715Z,34.35
2022-08-20T18:28:47.208Z,33.90
2022-08-20T18:31:32.712Z,33.90
2022-08-20T18:34:20.199Z,33.90
2022-08-20T18:36:56.872Z,35.20
2022-08-20T18:39:34.637Z,34.98
2022-08-20T18:42:10.825Z,34.95
2022-08-20T18:44:39.054Z,35.96
2022-08-20T18:47:28.170Z,35.37
2022-08-20T18:50:24.155Z,35.37
2022-08-20T18:53:24.413Z,37.00
2022-08-20T18:56:04.335Z,38.16
2022-08-20T18:59:00.601Z,37.25
2022-08-20T19:01:28.469Z,38.09
2022-08-20T19:03:58.014Z,36.51
2022-08-20T19:06:29.173Z,36.40
2022-08-20T19:09:16.745Z,41.24
2022-08-20T19:12:22.603Z,42.06
2022-08-20T19:15:03.966Z,42.01
2022-08-20T19:17:52.257Z,41.72
2022-08-20T19:20:28.200Z,41.77
2022-08-20T19:23:09.553Z,42.09
2022-08-20T19:25:48.535Z,43.03
2022-08-20T19:28:31.360Z,45.92
2022-08-20T19:31:33.105Z,49.12
2022-08-20T19:34:22.236Z,42.09
2022-08-20T19:37:27.410Z,45.60
2022-08-20T19:39:50.583Z,46.06
2022-08-20T19:42:29.786Z,46.03
2022-08-20T19:45:05.617Z,43.10
2022-08-20T19:47:37.849Z,47.11
2022-08-20T19:50:39.040Z,43.22
2022-08-20T19:53:36.452Z,45.20
2022-08-20T19:56:09.871Z,49.73
2022-08-20T19:58:37.908Z,46.43
2022-08-20T20:01:18.437Z,49.55
2022-08-20T20:04:00.906Z,45.43
2022-08-20T20:06:30.097Z,42.98
2022-08-20T20:09:05.153Z,46.24
2022-08-20T20:11:36.358Z,47.41
2022-08-20T20:14:08.303Z,46.17
2022-08-20T20:16:38.084Z,47.06
2022-08-20T20:19:28.430Z,48.58
2022-08-20T20:22:27.670Z,44.43
2022-08-20T20:25:20.648Z,43.67
2022-08-20T20:28:05.104Z,42.61
2022-08-20T20:30:34.461Z,42.70
2022-08-20T20:33:19.740Z,51.83
2022-08-20T20:35:47.925Z,52.52
2022-08-20T20:38:28.526Z,50.72
2022-08-20T20:41:01.022Z,53.15
2022-08-20T20:43:41.918Z,51.60
2022-08-20T20:46:22.596Z,46.84
2022-08-20T20:48:54.196Z,50.99
2022-08-20T20:51:27.827Z,51.01
2022-08-20T20:54:01.809Z,50.24
2022-08-20T20:56:33.832Z,46.35
2022-08-20T20:59:06.527Z,45.52
2022-08-20T21:01:49.024Z,45.32
2022-08-20T21:04:24.035Z,46.53
2022-08-20T21:06:54.163Z,44.74
2022-08-20T21:09:22.851Z,45.45
2022-08-20T21:11:51.028Z,43.79
2022-08-20T21:14:18.943Z,43.66
2022-08-20T21:16:47.012Z,46.85
2022-08-20T21:19:15.381Z,44.53
2022-08-20T21:21:45.518Z,50.48
2022-08-20T21:24:13.595Z,50.87
2022-08-20T21:26:41.762Z,46.00
2022-08-20T21:29:10.972Z,47.13
2022-08-20T21:31:43.914Z,44.68
2022-08-20T21:34:12.752Z,47.45
2022-08-20T21:36:41.247Z,44.70
2022-08-20T21:39:09.525Z,50.12
2022-08-20T21:41:37.565Z,54.34
2022-08-20T21:44:12.459Z,48.64
2022-08-20T21:46:40.712Z,45.47
2022-08-20T21:49:08.860Z,49.06
2022-08-20T21:51:36.550Z,47.68
2022-08-20T21:54:04.310Z,46.43
2022-08-20T21:56:33.722Z,46.99
2022-08-20T21:59:01.611Z,46.47
2022-08-20T22:01:29.681Z,49.46
2022-08-20T22:03:57.564Z,54.42
2022-08-20T22:06:25.324Z,47.58
2022-08-20T22:08:53.487Z,48.13
2022-08-20T22:11:21.559Z,47.99
2022-08-20T22:13:49.638Z,48.83
2022-08-20T22:16:24.208Z,57.94
2022-08-20T22:18:52.280Z,59.91
2022-08-20T22:21:25.645Z,52.15
2022-08-20T22:23:53.853Z,50.55
2022-08-20T22:26:22.415Z,50.10
2022-08-20T22:28:55.477Z,49.43
2022-08-20T22:31:27.335Z,51.12
2022-08-20T22:33:56.417Z,51.12
2022-08-20T22:36:25.337Z,58.84
2022-08-20T22:38:54.795Z,60.92
2022-08-20T22:41:23.133Z,55.05
2022-08-20T22:43:56.585Z,57.56
2022-08-20T22:46:27.411Z,51.57
2022-08-20T22:48:55.891Z,48.99
2022-08-20T22:51:30.731Z,51.66
2022-08-20T22:53:59.572Z,50.00
2022-08-20T22:56:29.863Z,49.29
2022-08-20T22:58:59.111Z,49.91
2022-08-20T23:01:28.097Z,49.57
2022-08-20T23:04:14.724Z,60.00
2022-08-20T23:06:42.428Z,59.66
2022-08-20T23:09:13.058Z,61.91
2022-08-20T23:11:41.575Z,56.41
2022-08-20T23:14:09.607Z,55.46
2022-08-20T23:16:39.111Z,54.72
2022-08-20T23:19:07.305Z,61.88
2022-08-20T23:21:37.149Z,62.61
2022-08-20T23:24:08.353Z,56.60
2022-08-20T23:26:44.724Z,54.61
2022-08-20T23:29:25.804Z,52.53
2022-08-20T23:31:55.952Z,51.41
2022-08-20T23:34:24.910Z,51.26
2022-08-20T23:36:54.162Z,52.71
2022-08-20T23:39:22.987Z,51.36
2022-08-20T23:41:51.044Z,61.77
2022-08-20T23:44:26.310Z,58.34
2022-08-20T23:46:56.572Z,53.79
2022-08-20T23:49:25.488Z,53.81
2022-08-20T23:51:53.277Z,53.37
2022-08-20T23:54:21.391Z,57.07
2022-08-20T23:56:49.422Z,54.41
2022-08-20T23:59:17.180Z,52.25
